sim
Sign-in with your pilot id or email,
or register
Callsign
Passwort

Schedule Details

Flight Number: EWG4068
Departure: Dortmund Airport (EDLW) at 09:20
Arrival: Munich Airport (EDDM) at 10:25
Route: Eurowings Passenger Schedule. Enter filed route here before submitting Pirep.

Weather Information
Getting current METAR information for EDLW 281050Z 19006KT 170V230 9999 FEW025 14/09 Q1009
Getting current METAR information for EDDM 281050Z 26004KT 210V310 9999 FEW007 09/07 Q1011 NOSIG

Schedule Frequency

Route Map